x

Santa Monica Basin - 33nm Wsw Of Santa Monica, Ca (46025) Weather Station

5:00pm - Sat 10th Dec 2016 All times are PST. -8 hours from GMT.

  • Wind
  • Sea Temp 62°f
  • 空気 Temp 60°f
  • Sea Pressure 1019mb
  • Santa Monica Basin - 33nm Wsw Of Santa Monica, Ca
  • Santa Monica Basin - 33nm Wsw Of Santa Monica, Ca

More Historic Weather Station data

Upgrade to MSW Pro to gain access to the past 30 days of data for over 8000 Wavebouys and Weather Stations around the globe.

Join Pro

Comparision Forecast

View Surf forecast
   
Sat 12/10 5:00pm  -   -   -   -  4 mph 1019mb 62f 60f
4:50pm 3.5ft 5s 5s 2 4 mph 1018.9mb 62f 60f
4:40pm  -   -   -  2 4 mph 1018.9mb 62f 60f
4:30pm  -   -   -  2 4 mph 1018.9mb 62f 60f
4:20pm  -   -   -  2 4 mph 1019mb 62f 60f
4:10pm  -   -   -  2 4 mph 1018.9mb 62f 60f
4:00pm  -   -   -  4
mph
1019.1mb 62f 60f
3:50pm 3.5ft 6s 5s 4 7 mph 1019.1mb 62f 60f
3:40pm 3.5ft  -  5s 7 9 mph 1019mb 62f 60f
3:30pm  -   -   -  4 7 mph 1019mb 62f 60f
3:20pm  -   -   -  7
mph
1019mb 62f 60f
3:10pm  -   -   -  7 9 mph 1019.3mb 62f 60f
3:00pm  -   -   -  9 11 mph 1019.3mb 62f 60f
2:50pm 3.5ft 6s 5s 9 11 mph 1019.4mb 62f 60f
2:40pm 3.5ft  -  5s 9 11 mph 1019.5mb 62f 60f
2:30pm  -   -   -  9 11 mph 1019.5mb 62f 61f
2:20pm  -   -   -  7 9 mph 1019.5mb 62f 61f
2:10pm  -   -   -  7 9 mph 1019.5mb 62f 61f
2:00pm  -   -   -  7 11 mph 1019.5mb 62f 61f
1:50pm 3.5ft 6s 5s 9 11 mph 1019.6mb 62f 61f
1:40pm 3.5ft  -  5s 9 11 mph 1019.8mb 62f 61f
1:30pm  -   -   -  7 9 mph 1019.9mb 62f 61f
1:20pm  -   -   -  2 4 mph 1020mb 62f 61f
1:10pm  -   -   -  2 4 mph 1020mb 62f 61f
1:00pm  -   -   -  2 4 mph 1020.1mb 62f 61f
12:50pm 3ft 15s 5s 2 4 mph 1020.4mb 61f 61f
12:40pm  -   -   -   -  2 mph 1020.5mb 61f 61f
12:30pm  -   -   -   -  2 mph 1020.5mb 61f 61f
12:20pm  -   -   -  2 4 mph 1020.8mb 61f 61f
12:10pm  -   -   -  2
mph
1021mb 61f 61f
12:00pm  -   -   -   -  2 mph 1021.1mb 61f 61f
11:50am 3ft 15s 5s 2 4 mph 1021.1mb 61f 61f
11:40am 3ft  -  5s 4 7 mph 1021.1mb 61f 61f
11:30am  -   -   -  2 4 mph 1021.3mb 61f 61f
11:20am  -   -   -   -  2 mph 1021.4mb 61f 60f
11:10am  -   -   -  2
mph
1021.5mb 61f 60f
11:00am  -   -   -  2 7 mph 1021.5mb 61f 60f
10:50am 3ft 9s 5s 7 9 mph 1021.6mb 61f 60f
10:40am  -   -   -  7 9 mph 1021.6mb 61f 60f
10:30am  -   -   -  4 7 mph 1021.9mb 61f 61f
10:20am  -   -   -  4 7 mph 1021.9mb 61f 60f
10:10am  -   -   -  2 4 mph 1021.9mb 61f 60f
10:00am  -   -   -  2 4 mph 1021.9mb 61f 60f
9:50am 3.5ft 9s 6s 2 4 mph 1021.9mb 61f 60f
9:40am 3.5ft  -  6s 2 4 mph 1021.9mb 61f 60f
9:30am  -   -   -   -  2 mph 1022mb 61f 60f
9:20am  -   -   -   -  2 mph 1021.9mb 61f 60f
9:10am  -   -   -   -  2 mph 1021.6mb 61f 60f
9:00am  -   -   -  2 4 mph 1021.9mb 61f 60f
8:50am 3ft 14s 6s 2 4 mph 1021.8mb 61f 60f
8:40am  -   -   -  2 4 mph 1021.6mb 61f 60f
8:30am  -   -   -  4
mph
1021.6mb 61f 60f
8:20am  -   -   -  4 7 mph 1021.5mb 61f 60f
8:10am  -   -   -  4 7 mph 1021.5mb 61f 60f
8:00am  -   -   -  2 4 mph 1021.3mb 61f 60f
7:50am 3ft 8s 6s 4 7 mph 1021.1mb 61f 60f
7:40am  -   -   -  4 7 mph 1021mb 61f 60f
7:30am  -   -   -  4 7 mph 1021mb 61f 60f
7:20am  -   -   -  4 7 mph 1021mb 61f 60f
7:10am  -   -   -  4 7 mph 1021mb 61f 60f
7:00am  -   -   -  4 7 mph 1021.1mb 61f 60f
6:50am 3ft 15s 6s 4 7 mph 1021.1mb 61f 60f
6:40am 3ft  -  6s 4 7 mph 1021.1mb 61f 60f
6:30am  -   -   -  2 7 mph 1021mb 61f 60f
6:20am  -   -   -  2
mph
1021mb 61f 60f
6:10am  -   -   -   -  4 mph 1021mb 61f 60f
6:00am  -   -   -   -  2 mph 1020.9mb 61f 60f
5:50am 3ft 14s 6s 2 4 mph 1020.6mb 61f 60f
5:40am  -   -   -  4
mph
1020.6mb 61f 60f
5:30am  -   -   -  4 7 mph 1020.5mb 61f 60f
5:20am  -   -   -  4 9 mph 1020.5mb 61f 60f
5:10am  -   -   -  7
mph
1020.4mb 61f 60f
5:00am  -   -   -  7 9 mph 1020.5mb - -
4:50am 3ft 14s 5s 9 11 mph 1020.5mb 61f 60f
4:40am  -   -   -  9 11 mph 1020.5mb 61f 60f
4:30am  -   -   -  9 11 mph 1020.6mb 61f 60f
4:20am  -   -   -  7 9 mph 1020.5mb 61f 60f
4:10am  -   -   -  7 9 mph 1020.9mb 61f 60f
4:00am  -   -   -  4 7 mph 1020.9mb 61f 60f
3:50am 3ft 5s 5s 4 7 mph 1021mb 61f 60f
3:40am 3ft  -  5s 7 11 mph 1020.9mb 61f 60f
3:30am  -   -   -  9 11 mph 1020.9mb 61f 60f
3:20am  -   -   -  9 11 mph 1020.8mb 61f 60f
3:10am  -   -   -  9 11 mph 1020.9mb 61f 60f
3:00am  -   -   -  9 11 mph 1021mb 61f 60f
2:50am 3.5ft 6s 5s 9 11 mph 1021mb 61f 60f
2:40am 3.5ft  -  5s 11 13 mph 1021.1mb 61f 60f
2:30am  -   -   -  11 13 mph 1021.1mb 61f 60f
2:20am  -   -   -  11 13 mph 1021.1mb 61f 60f
2:10am  -   -   -  9 11 mph 1021mb 61f 60f
2:00am  -   -   -  9 11 mph 1021.1mb 61f 60f
1:50am 3.5ft 14s 5s 11 13 mph 1021mb 61f 60f
1:40am 3.5ft  -  5s 11 13 mph 1020.9mb 61f 60f
1:30am  -   -   -  11 13 mph 1020.9mb 61f 60f
1:20am  -   -   -  11 13 mph 1020.9mb 61f 59f
1:10am  -   -   -  11 13 mph 1021.1mb 61f 59f
1:00am  -   -   -  13 16 mph 1021mb 61f 59f
12:50am 3.5ft 5s 5s 11 13 mph 1021.1mb 61f 60f
12:40am  -   -   -  11 13 mph 1021.3mb 61f 60f
12:30am  -   -   -  9 13 mph 1021.4mb 61f 60f
12:20am  -   -   -  9 11 mph 1021.4mb 61f 60f
12:10am  -   -   -  11 13 mph 1021.4mb 61f 60f
12:00am  -   -   -  13 16 mph 1021.5mb 61f 60f
Fri 12/09 11:50pm 3.5ft 5s 5s 11 18 mph 1021.6mb 61f 60f
11:40pm 3.5ft  -  5s  -  2 mph 1021.9mb 61f 60f
11:30pm  -   -   -   -  2 mph 1021.9mb 61f 60f
11:20pm  -   -   -  2
mph
1021.9mb 61f 60f
11:10pm  -   -   -  2 4 mph 1022mb 61f 59f
11:00pm  -   -   -  2 4 mph 1022mb 61f 59f
10:50pm 3.5ft 5s 5s 4
mph
1022mb 61f 59f
10:40pm  -   -   -  4 7 mph 1021.9mb 61f 59f
10:30pm  -   -   -  4 7 mph 1021.9mb 61f 58f
10:20pm  -   -   -  4 7 mph 1022mb 61f 58f
10:10pm  -   -   -  4 7 mph 1022mb 61f 58f
10:00pm  -   -   -  4 9 mph 1022mb 61f 59f
9:50pm 3.5ft 5s 5s 2
mph
1021.9mb 60f 59f
9:40pm 3.5ft  -  5s 4
mph
1021.9mb 60f 59f
9:30pm  -   -   -  2 4 mph 1021.9mb 60f 59f
9:20pm  -   -   -  4 7 mph 1021.8mb 60f 59f
9:10pm  -   -   -  4 7 mph 1021.6mb 60f 58f
9:00pm  -   -   -  4 7 mph 1021.5mb 60f 59f
8:50pm 3.5ft 5s 5s 4 7 mph 1021.6mb 60f 59f
8:40pm 3.5ft  -  5s 2 4 mph 1021.6mb 60f 59f
8:30pm  -   -   -  2 4 mph 1021.5mb 60f 59f
8:20pm  -   -   -  2 4 mph 1021.5mb 60f 58f
8:10pm  -   -   -  2 4 mph 1021.4mb 61f 59f
8:00pm  -   -   -  2 4 mph 1021.3mb 61f 59f
7:50pm 3.5ft 5s 5s 2 4 mph 1021.1mb 61f 59f
7:40pm 3.5ft  -  5s 2 4 mph 1021.1mb 61f 59f
7:30pm  -   -   -   -  2 mph 1021mb 61f 59f
7:20pm  -   -   -   -  4 mph 1020.9mb 61f 59f
7:10pm  -   -   -   -  2 mph 1020.8mb 61f 59f
7:00pm  -   -   -   -  2 mph 1020.9mb 61f 59f
6:50pm 3.5ft 5s 5s 2 4 mph 1021.1mb 61f 59f
6:40pm 3.5ft  -  5s 2 4 mph 1021mb 61f 59f
6:30pm  -   -   -   -  2 mph 1021mb 61f 59f
6:20pm  -   -   -  2 4 mph 1021mb 60f 59f
6:10pm  -   -   -  4 7 mph 1021.1mb 60f 59f
6:00pm  -   -   -  7 9 mph 1021.1mb - 59f
5:50pm 3.5ft 5s 5s 7 9 mph 1021mb 60f 59f
5:40pm 3.5ft  -  5s 7 9 mph 1021mb - 59f
5:30pm  -   -   -  7
mph
1021mb 60f 59f
5:20pm  -   -   -  7
mph
1020.9mb 60f 59f
5:10pm  -   -   -  7 9 mph 1020.9mb 60f 60f
5:00pm  -   -   -  7 9 mph 1020.9mb 60f 60f
4:50pm 3.5ft 14s 5s 7 9 mph 1020.8mb 60f 60f
4:40pm 3.5ft  -  5s 7 9 mph 1020.9mb 60f 60f
4:30pm  -   -   -  7 9 mph 1020.8mb 60f 60f
4:20pm  -   -   -  7 9 mph 1020.9mb 60f 60f
4:10pm  -   -   -  4 7 mph 1020.9mb 60f 60f
4:00pm  -   -   -  2 4 mph 1020.9mb 60f 60f
3:50pm 3ft 8s 5s 2 4 mph 1021mb 60f 60f
3:40pm 3ft  -  5s  -  2 mph 1021.1mb 60f 59f
3:30pm  -   -   -  2 4 mph 1021.1mb 60f 59f
3:20pm  -   -   -  2 4 mph 1021.3mb 60f 59f
3:10pm  -   -   -   -  2 mph 1021.4mb 60f 59f
3:00pm  -   -   -   -  2 mph 1021.4mb 60f 59f
2:50pm 3ft 8s 6s 2 4 mph 1021.5mb 60f 59f
2:40pm 3ft  -  6s 4
mph
1021.5mb 60f 59f
2:30pm  -   -   -  4 7 mph 1021.9mb 60f 59f
2:20pm  -   -   -  4 7 mph 1021.9mb 60f 59f
2:10pm  -   -   -  4 7 mph 1022mb 60f 59f
2:00pm  -   -   -  7 9 mph 1022mb 60f 59f
1:50pm 2.5ft 15s 6s 7 9 mph 1022mb 60f 58f
1:40pm 2.5ft  -  6s 7 9 mph 1022.1mb 60f 58f
1:30pm  -   -   -  7 9 mph 1022.3mb 60f 58f
1:20pm  -   -   -  7
mph
1022.5mb 60f 58f
1:10pm  -   -   -  4 7 mph 1022.5mb - 58f
1:00pm  -   -   -  4 7 mph 1022.8mb 60f 58f
12:50pm 2.5ft 8s 6s 4 7 mph 1022.8mb 60f 58f
12:40pm 2.5ft  -  6s 4 7 mph 1023mb 60f 58f
12:30pm  -   -   -  7
mph
1023.1mb 60f 58f
12:20pm  -   -   -  7 9 mph 1023.4mb 60f 58f
12:10pm  -   -   -  7
mph
1023.5mb 60f 58f
12:00pm  -   -   -  7
mph
1023.8mb 60f 58f
11:50am 2.5ft 8s 6s 7
mph
1024mb 60f 58f
11:40am 2.5ft  -  6s 4 7 mph 1024.2mb 60f 58f
11:30am  -   -   -  4 7 mph 1024.3mb 60f 58f
11:20am  -   -   -  4 7 mph 1024.5mb 60f 58f
11:10am  -   -   -  4 7 mph 1024.7mb 60f 58f
11:00am  -   -   -  4 7 mph 1024.8mb 60f 58f
10:50am 2.5ft 15s 7s 4
mph
1024.8mb 60f 58f
10:40am  -   -   -  4 7 mph 1024.8mb 60f 58f
10:30am  -   -   -  4 7 mph 1024.8mb 60f 58f
10:20am  -   -   -  4 7 mph 1024.8mb 60f 58f
10:10am  -   -   -  4 7 mph 1025mb 60f 58f
10:00am  -   -   -  4
mph
1025mb 60f 58f
9:50am 2.5ft 15s 7s 4
mph
1025mb 60f 58f
9:40am 2.5ft  -  7s 4 7 mph 1025.2mb 60f 58f
9:30am  -   -   -  7
mph
1025.2mb 60f 58f
9:20am  -   -   -  7 9 mph 1025mb 60f 58f
9:10am  -   -   -  7 9 mph 1025mb 60f 58f
9:00am  -   -   -  7 9 mph 1025mb - -
8:50am 2.5ft 8s 6s 7
mph
1024.8mb 60f 58f
8:40am 2.5ft  -  6s 7
mph
1024.7mb 60f 58f
8:30am  -   -   -  7 9 mph 1024.5mb 60f 58f
8:20am  -   -   -  7
mph
1024.5mb 60f 58f
8:10am  -   -   -  7 9 mph 1024.5mb 60f 59f
8:00am  -   -   -  7 9 mph 1024.5mb 60f 59f
7:50am 2.5ft 9s 6s 9
mph
1024.5mb 60f 59f
7:40am  -   -   -  9
mph
1024.5mb 60f 59f
7:30am  -   -   -  9 11 mph 1024.3mb 60f 59f
7:20am  -   -   -  9 11 mph 1024.3mb 60f 59f
7:10am  -   -   -  7 9 mph 1024.2mb 60f 58f
7:00am  -   -   -  7 9 mph 1024mb 60f 58f
6:50am 2ft 15s 6s 7 9 mph 1024mb 60f 58f
6:40am 2ft  -  6s 7 9 mph 1023.9mb 60f 59f
6:30am  -   -   -  7 9 mph 1023.9mb 60f 59f
6:20am  -   -   -  7 9 mph 1023.8mb 60f 59f
6:10am  -   -   -  7 9 mph 1023.8mb 60f 58f
6:00am  -   -   -  7 9 mph 1023.8mb 60f 59f
5:50am 2ft 15s 5s 7 9 mph 1023.9mb 60f 59f
5:40am 2ft  -  5s 7 9 mph 1023.8mb 60f 59f
5:30am  -   -   -  7 9 mph 1023.8mb 60f 59f
5:20am  -   -   -  7 9 mph 1023.6mb 60f 59f
5:10am  -   -   -  7 9 mph 1023.8mb 60f 59f
5:00am  -   -   -  9 11 mph 1023.9mb - -
4:50am 2.5ft 15s 5s 9 11 mph 1023.9mb 60f 59f
4:40am 2.5ft  -  5s 9 11 mph 1023.9mb 60f 59f
4:30am  -   -   -  9 11 mph 1023.9mb 60f 59f
4:20am  -   -   -  9 11 mph 1023.9mb 60f 59f
4:10am  -   -   -  9 11 mph 1023.9mb 60f 59f
4:00am  -   -   -  9 11 mph 1024mb 60f 59f
3:50am 2.5ft 15s 5s 9 13 mph 1024mb 60f 59f
3:40am 2.5ft  -  5s 9 11 mph 1024.2mb 60f 59f
3:30am  -   -   -  9 11 mph 1024.2mb 60f 59f
3:20am  -   -   -  7 9 mph 1024.2mb 60f 59f
3:10am  -   -   -  7 9 mph 1024.3mb 60f 59f
3:00am  -   -   -  7
mph
1024.3mb 60f 59f
2:50am 2.5ft 15s 5s 7
mph
1024.3mb 60f 59f
2:40am 2.5ft  -  5s 7
mph
1024.5mb 60f 59f
2:30am  -   -   -  7 9 mph 1024.5mb 60f 60f
2:20am  -   -   -  7 9 mph 1024.3mb 60f 60f
2:10am  -   -   -  7 9 mph 1024.3mb 60f 60f
2:00am  -   -   -  4 7 mph 1024.3mb 60f 60f
1:50am 2.5ft 15s 5s 4
mph
1024.3mb 60f 60f
1:40am 2.5ft  -  5s 7
mph
1024.3mb 60f 60f
1:30am  -   -   -  7 9 mph 1024.3mb 60f 60f
1:20am  -   -   -  7 9 mph 1024.3mb 60f 60f
1:10am  -   -   -  9 11 mph 1024.3mb 60f 60f
1:00am  -   -   -  9 11 mph 1024.3mb 60f 60f
12:50am 2.5ft 15s 5s 9 11 mph 1024.3mb 60f 60f
12:40am 2.5ft  -  5s 9 11 mph 1024.5mb 60f 60f
12:30am  -   -   -  9 11 mph 1024.3mb 60f 60f
12:20am  -   -   -  9
mph
1024.3mb 60f 60f
12:10am  -   -   -  9 11 mph 1024.3mb 60f 60f
12:00am  -   -   -  9 11 mph 1024.3mb 60f 60f
Thu 12/08 11:50pm 2ft 15s 5s 9 11 mph 1024.5mb 60f 60f
11:40pm 2ft  -  5s 9 11 mph 1024.5mb 60f 60f
11:30pm  -   -   -  9 11 mph 1024.5mb 60f 60f
11:20pm  -   -   -  9 11 mph 1024.5mb 60f 60f
11:10pm  -   -   -  11
mph
1024.7mb 60f 60f
11:00pm  -   -   -  11 13 mph 1024.8mb 60f 60f
10:50pm 2ft 15s 5s 11 13 mph 1024.8mb 60f 60f
10:40pm 2ft  -  5s 11 13 mph 1024.8mb 60f 60f
10:30pm  -   -   -  11 13 mph 1024.7mb 60f 60f
10:20pm  -   -   -  11 13 mph 1024.7mb 60f 60f
10:10pm  -   -   -  9 13 mph 1024.7mb 60f 60f
10:00pm  -   -   -  11 13 mph 1024.7mb 60f 60f
9:50pm 2ft 15s 5s 9 11 mph 1024.5mb 60f 60f
9:40pm 2ft  -  5s 9 13 mph 1024.3mb 60f 60f
9:30pm  -   -   -  7 9 mph 1024.5mb 60f 60f
9:20pm  -   -   -  7 9 mph 1024.5mb 60f 60f
9:10pm  -   -   -  7 9 mph 1024.5mb 60f 60f
9:00pm  -   -   -  9
mph
1024.5mb 60f 60f
8:50pm 2ft 15s 5s 9 11 mph 1024.3mb 60f 60f
8:40pm  -   -   -  9 11 mph 1024.3mb 60f 60f
8:30pm  -   -   -  7 11 mph 1024.3mb 60f 60f
8:20pm  -   -   -  7 9 mph 1024.3mb 60f 60f
8:10pm  -   -   -  9
mph
1024.3mb 60f 60f
8:00pm  -   -   -  7 11 mph 1024.3mb 60f 60f
7:50pm 2ft 15s 5s 7 9 mph 1024.2mb 60f 59f
7:40pm 2ft  -  5s 7 9 mph 1024.2mb 60f 59f
7:30pm  -   -   -  4 7 mph 1024.2mb 60f 59f
7:20pm  -   -   -  4 7 mph 1024mb 60f 59f
7:10pm  -   -   -  7 9 mph 1024mb 60f 60f
7:00pm  -   -   -  7 9 mph 1023.9mb 60f 60f
6:50pm 2ft 15s 5s 9 11 mph 1023.8mb 60f 60f
6:40pm 2ft  -  5s 9 11 mph 1023.8mb 60f 60f
6:30pm  -   -   -  9 11 mph 1023.6mb 60f 60f
6:20pm  -   -   -  9 11 mph 1023.5mb 60f 60f
6:10pm  -   -   -  9 11 mph 1023.5mb 60f 60f
6:00pm  -   -   -  9 11 mph 1023.5mb 60f 60f
5:50pm 2.5ft 15s 5s 9 11 mph 1023.4mb 60f 60f
5:40pm 2.5ft  -  5s 9 11 mph 1023.4mb 60f 60f
5:30pm  -   -   -  9 11 mph 1023.5mb 60f 60f
5:20pm  -   -   -  9 11 mph 1023.3mb 60f 60f
5:10pm  -   -   -  9 11 mph 1022.9mb 60f 59f
5:00pm  -   -   -  11
mph
1022.9mb 60f 59f
4:50pm 1.6ft 15s 4s 11 13 mph 1022.8mb 60f 60f
4:40pm 1.6ft  -  4s 11 13 mph 1022.9mb 60f 60f
4:30pm  -   -   -  11 13 mph 1023mb 60f 60f
4:20pm  -   -   -  11 13 mph 1023mb 60f 60f
4:10pm  -   -   -  13 16 mph 1023.1mb 60f 60f
4:00pm  -   -   -  13 16 mph 1023mb 60f 60f
3:50pm 2.5ft 16s 5s 13 16 mph 1023mb 60f 60f
3:40pm  -   -   -  11 16 mph 1023.1mb 60f 60f
3:30pm  -   -   -  11 13 mph 1023.3mb 60f 60f
3:20pm  -   -   -  11 16 mph 1023.3mb 60f 59f
3:10pm  -   -   -  13 16 mph 1023.1mb 60f 59f
3:00pm  -   -   -  11 13 mph 1023.1mb 60f 59f
2:50pm 2ft 15s 5s 11 13 mph 1023.3mb 60f 59f
2:40pm 2ft  -  5s 11 13 mph 1023.1mb 60f 59f
2:30pm  -   -   -  9 11 mph 1023.1mb 60f 59f
2:20pm  -   -   -  9 11 mph 1023mb 60f 59f
2:10pm  -   -   -  9 11 mph 1023mb 60f 59f
2:00pm  -   -   -  9 11 mph 1023mb 60f 59f
1:50pm 2ft 16s 5s 9 11 mph 1023.3mb 60f 59f
1:40pm 2ft  -  5s 9 11 mph 1023.3mb 60f 59f
1:30pm  -   -   -  9 11 mph 1023.3mb 60f 59f
1:20pm  -   -   -  9 11 mph 1023.5mb 60f 59f
1:10pm  -   -   -  9 11 mph 1023.5mb 60f 59f
1:00pm  -   -   -  9 11 mph 1023.5mb 60f 59f
12:50pm 2.5ft 16s 6s 9 11 mph 1023.9mb 60f 59f
12:40pm 2.5ft  -  6s 9 11 mph 1023.9mb 60f 59f
12:30pm  -   -   -  9 11 mph 1024mb 60f 59f
12:20pm  -   -   -  11
mph
1024mb 60f 59f
12:10pm  -   -   -  11 13 mph 1024mb 60f 59f
12:00pm  -   -   -  11 13 mph 1024.2mb 60f 59f
11:50am 2.5ft 16s 5s 11 13 mph 1024.2mb 60f 59f
11:40am 2.5ft  -  5s 13 16 mph 1024mb 60f 59f
11:30am  -   -   -  11 16 mph 1024.2mb - 59f
11:20am  -   -   -  11 13 mph 1024.2mb 60f 59f
11:10am  -   -   -  11 13 mph 1024.3mb 60f 59f
11:00am  -   -   -  11 13 mph 1024.3mb 60f 59f
10:50am 2.5ft 16s 5s 9 11 mph 1024.5mb 60f 59f
10:40am 2.5ft  -  5s 11 13 mph 1024.7mb 60f 59f
10:30am  -   -   -  11 13 mph 1024.7mb 60f 59f
10:20am  -   -   -  11 13 mph 1024.8mb 60f 59f
10:10am  -   -   -  11 13 mph 1024.8mb 60f 59f
10:00am  -   -   -  9 11 mph 1024.8mb 60f 58f
9:50am 2.5ft 16s 6s 9 11 mph 1025mb 60f 58f
9:40am 2.5ft  -  6s 9 11 mph 1024.8mb 60f 58f
9:30am  -   -   -  9 11 mph 1024.8mb 60f 58f
9:20am  -   -   -  11 13 mph 1024.7mb 60f 58f
9:10am  -   -   -  9 11 mph 1024.5mb 60f 58f
9:00am  -   -   -  9 11 mph 1024.3mb 60f 58f
8:50am 2.5ft 11s 6s 9 11 mph 1024.3mb 60f 58f
8:40am 2.5ft  -  6s 9 11 mph 1024.3mb 60f 58f
8:30am  -   -   -  9 11 mph 1024mb 60f 58f
8:20am  -   -   -  9 11 mph 1023.8mb 60f 58f
8:10am  -   -   -  9 11 mph 1023.5mb 60f 58f
8:00am  -   -   -  9 11 mph 1023.5mb 60f 58f
7:50am 2.5ft 16s 6s 9 11 mph 1023.4mb 60f 58f
7:40am  -   -   -  9 11 mph 1023.3mb 60f 58f
7:30am  -   -   -  9 11 mph 1023.3mb - 58f
7:20am  -   -   -  9 11 mph 1023mb 60f 58f
7:10am  -   -   -  9 11 mph 1022.9mb 60f 58f
7:00am  -   -   -  9 11 mph 1022.9mb 60f 57f
6:50am 2.5ft 16s 6s 9 11 mph 1022.6mb 60f 57f
6:40am 2.5ft  -  6s 9 11 mph 1022.5mb 60f 57f
6:30am  -   -   -  9 11 mph 1022.5mb 60f 57f
6:20am  -   -   -  9 11 mph 1022.1mb 60f 57f
6:10am  -   -   -  11 13 mph 1022.1mb 60f 57f
6:00am  -   -   -  11 13 mph 1022mb 60f 57f
5:50am 2.5ft 16s 5s 9 13 mph 1022mb 60f 57f
5:40am 2.5ft  -  5s 9 11 mph 1022mb 60f 57f
5:30am  -   -   -  9 11 mph 1021.9mb 60f 57f
5:20am  -   -   -  9 11 mph 1021.9mb - 57f
5:10am  -   -   -  11 13 mph 1021.9mb - 57f
5:00am  -   -   -  9 11 mph 1021.8mb - -
4:50am 2.5ft 16s 5s 11 13 mph 1022.2mb 60f 57f
4:40am 2.5ft  -  5s 9 11 mph 1021.5mb 60f 57f
4:30am  -   -   -  9 11 mph 1021.3mb 60f 57f
4:20am  -   -   -  9 11 mph 1021.4mb 60f 57f
4:10am  -   -   -  9 11 mph 1021.1mb 60f 57f
4:00am  -   -   -  9 11 mph 1021.1mb 60f 57f
3:50am 2.5ft 16s 5s 9 11 mph 1021.3mb 60f 57f
3:40am 2.5ft  -  5s 9
mph
1021.3mb 60f 57f
3:30am  -   -   -  9
mph
1021.3mb 60f 58f
3:20am  -   -   -  7 9 mph 1021.1mb 60f 57f
3:10am  -   -   -  7 9 mph 1021.1mb 60f 58f
3:00am  -   -   -  7 9 mph 1021.1mb 60f 58f
2:50am 2.5ft 16s 5s 7 9 mph 1021.1mb 60f 58f
2:40am 2.5ft  -  5s 7 9 mph 1021.3mb 60f 57f
2:30am  -   -   -  9 11 mph 1021.4mb 60f 57f
2:20am  -   -   -  9 11 mph 1021.3mb 60f 57f
2:10am  -   -   -  9 11 mph 1021.3mb 60f 58f
2:00am  -   -   -  11 13 mph 1021.1mb 60f 58f
1:50am 2.5ft 16s 5s 11 13 mph 1021.1mb 60f 58f
1:40am 2.5ft  -  5s 11 13 mph 1021.3mb 60f 58f
1:30am  -   -   -  11
mph
1021.1mb 60f 59f
1:20am  -   -   -  11 13 mph 1021.1mb 60f 59f
1:10am  -   -   -  11 13 mph 1021.1mb 60f 59f
1:00am  -   -   -  11 13 mph 1021mb 60f 59f
12:50am 2.5ft 16s 5s 11 13 mph 1021mb 60f 59f
12:40am 2.5ft  -  5s 11 13 mph 1021.1mb 60f 59f
12:30am  -   -   -  11 13 mph 1021.1mb 60f 59f
12:20am  -   -   -  11 13 mph 1021.4mb 60f 58f
12:10am  -   -   -  13 16 mph 1021.4mb 60f 58f
12:00am  -   -   -  11 13 mph 1021.4mb 60f 58f
Wed 12/07 11:50pm 2.5ft 13s 5s 11 16 mph 1021.3mb 60f 58f
11:40pm 2.5ft  -  5s 11 13 mph 1021.1mb 60f 58f
11:30pm  -   -   -  11 13 mph 1021.1mb 60f 58f
11:20pm  -   -   -  13
mph
1021.3mb 60f 58f
9:50pm 2.5ft 12s 5s 9 11 mph 1021mb 61f 59f
8:50pm 2.5ft 12s  -  7 9 mph 1020.9mb 61f 59f
8:30pm  -   -   -  7
mph
1020.6mb 60f 59f
8:20pm  -   -   -  7 9 mph 1020.5mb 60f 59f
8:10pm  -   -   -  7 9 mph 1020.5mb 61f 59f
8:00pm  -   -   -  7 9 mph 1020.5mb 61f 59f
7:50pm 2.5ft 12s 6s 9
mph
1020.5mb 61f 59f
7:40pm 2.5ft  -  6s 7 9 mph 1020.5mb 61f 59f
7:30pm  -   -   -  9
mph
1020.4mb 61f 59f
7:20pm  -   -   -  7 9 mph 1020.3mb 61f 59f
7:10pm  -   -   -  7 9 mph 1020.1mb 61f 59f
7:00pm  -   -   -  7 9 mph 1020.1mb 61f 58f
6:50pm 3ft 16s 5s 7 9 mph 1020.1mb 61f 58f
6:40pm 3ft  -  5s 7 9 mph 1020mb 61f 58f
6:30pm  -   -   -  7 9 mph 1019.9mb 61f 58f
6:20pm  -   -   -  9
mph
1019.8mb 61f 58f
6:10pm  -   -   -  9 11 mph 1019.6mb 61f 58f
6:00pm  -   -   -  9 11 mph 1019.6mb 61f 58f
5:50pm 2.5ft 12s 6s 9 11 mph 1019.4mb 61f 58f
5:40pm 2.5ft  -  6s 9 11 mph 1019.1mb 61f 58f
5:30pm  -   -   -  9 11 mph 1019.1mb 61f 58f
5:20pm  -   -   -  9 11 mph 1019.1mb 61f 58f
5:10pm  -   -   -  9 11 mph 1019mb 61f 58f
5:00pm  -   -   -  9 11 mph 1019.1mb - 58f
4:50pm 3ft 11s 6s 9 13 mph 1019.3mb 61f 58f
4:40pm  -   -   -  11
mph
1019.1mb 61f 58f
4:30pm  -   -   -  9 11 mph 1019.1mb 61f 58f
4:20pm  -   -   -  9 11 mph 1018.9mb 61f 58f
4:10pm  -   -   -  7 9 mph 1019mb 61f 58f
4:00pm  -   -   -  9 11 mph 1019mb 61f 58f
3:50pm 3ft 16s 6s 9 11 mph 1019mb 61f 58f
3:40pm 3ft  -  6s 9
mph
1019mb 61f 58f
3:30pm  -   -   -  7 9 mph 1018.9mb 61f 58f
3:20pm  -   -   -  7 9 mph 1018.9mb 61f 58f
3:10pm  -   -   -  7 9 mph 1018.9mb 61f 58f
3:00pm  -   -   -  7 9 mph 1018.6mb 61f 58f
2:50pm 3ft 13s 5s 7
mph
1018.6mb 61f 58f
2:40pm  -   -   -  7 9 mph 1018.6mb 61f 58f
2:30pm  -   -   -  7 9 mph 1018.6mb 61f 58f
2:20pm  -   -   -  7
mph
1018.6mb 61f 58f
2:10pm  -   -   -  7 9 mph 1018.5mb 61f 58f
2:00pm  -   -   -  7 9 mph 1018.6mb 61f 58f
1:50pm 3.5ft 13s 5s 7 9 mph 1019mb 61f 58f
1:40pm 3.5ft  -  5s 7 9 mph 1018.6mb 61f 58f
1:30pm  -   -   -  7
mph
1018.5mb 61f 58f
1:20pm  -   -   -  4 7 mph 1018.5mb 61f 58f
1:10pm  -   -   -  4 7 mph 1018.6mb 61f 58f
1:00pm  -   -   -  4 7 mph 1018.8mb 61f 58f
12:50pm 3.5ft 13s 5s 4 7 mph 1018.8mb - 58f
12:40pm 3.5ft  -  5s 4 7 mph 1018.6mb 61f 59f
12:30pm  -   -   -  4 7 mph 1018.9mb 61f 59f
12:20pm  -   -   -  4
mph
1018.9mb 61f 58f
12:10pm  -   -   -  4 7 mph 1019mb 61f 59f
12:00pm  -   -   -  2 4 mph 1019mb 60f 59f
11:50am 3.5ft 13s 6s 2 4 mph 1019.1mb 61f 58f
11:40am 3.5ft  -  6s 2 4 mph 1019mb 60f 58f
11:30am  -   -   -  2 4 mph 1019.3mb 60f 58f
11:20am  -   -   -  2 4 mph 1019.3mb 60f 58f
11:10am  -   -   -  2 4 mph 1019.5mb 60f 58f
11:00am  -   -   -  4 7 mph 1019.8mb 60f 58f
10:50am 3.5ft 6s 6s 4 7 mph 1019.9mb 60f 58f
10:40am  -   -   -  4 7 mph 1019.8mb - 58f
10:30am  -   -   -  2 4 mph 1019.5mb 60f 57f
10:20am  -   -   -  2 4 mph 1019.5mb 60f 57f
10:10am  -   -   -  2 4 mph 1019.5mb 60f 57f
10:00am  -   -   -   -  2 mph 1019.5mb 60f 57f
9:50am 3.5ft 12s 6s 2 4 mph 1019.5mb 60f 57f
9:40am 3.5ft  -  6s 2 4 mph 1019.6mb 60f 57f
9:30am  -   -   -  2 4 mph 1019.6mb 60f 57f
9:20am  -   -   -  2 4 mph 1019.4mb 60f 57f
9:10am  -   -   -  4
mph
1019.3mb 60f 57f
9:00am  -   -   -  4 7 mph 1019mb 60f 57f
8:50am 3.5ft 13s 6s 4 7 mph 1019mb 60f 57f
8:40am 3.5ft  -  6s 4 7 mph 1018.8mb 60f 57f
8:30am  -   -   -  4 7 mph 1018.5mb 60f 57f
8:20am  -   -   -  7 9 mph 1018.4mb 60f 57f
8:10am  -   -   -  7 9 mph 1018.1mb 60f 57f
8:00am  -   -   -  7 9 mph 1018.1mb 60f 56f
7:50am 3.5ft 12s 6s 4 7 mph 1018mb 60f 56f
7:40am  -   -   -  7 9 mph 1018mb 60f 56f
7:30am  -   -   -  7 9 mph 1018mb 60f 56f
7:20am  -   -   -  7 9 mph 1017.6mb 60f 56f
7:10am  -   -   -  7 9 mph 1017.5mb 60f 56f
7:00am  -   -   -  7 11 mph 1017.5mb 60f 56f
6:50am 3.5ft 13s 6s 7 9 mph 1017.4mb 60f 56f
6:40am  -   -   -  9
mph
1017.4mb 60f 56f
6:30am  -   -   -  9 11 mph 1017.3mb 60f 56f
6:20am  -   -   -  7 9 mph 1017.1mb 60f 56f
6:10am  -   -   -  7 9 mph 1017mb 60f 56f
6:00am  -   -   -  7 9 mph 1017mb 60f 56f
5:50am 3.5ft 13s 6s 7 9 mph 1017mb 60f 56f
5:40am  -   -   -  7 9 mph 1016.9mb 60f 56f
5:30am  -   -   -  7 9 mph 1016.8mb 60f 56f
5:20am  -   -   -  7 9 mph 1016.6mb 60f 56f
5:10am  -   -   -  7 9 mph 1016.5mb 60f 56f
5:00am  -   -   -  7 9 mph 1016.5mb 60f 56f
4:50am 3.5ft 13s 6s 7 9 mph 1016.4mb 60f 56f
4:40am 3.5ft  -  6s 7 9 mph 1016.3mb 60f 56f
4:30am  -   -   -  7 11 mph 1016.4mb 60f 56f
4:20am  -   -   -  9 11 mph 1016.5mb 61f 56f
4:10am  -   -   -  9 11 mph 1016.5mb 61f 56f
4:00am  -   -   -  9 11 mph 1016.5mb 61f 57f
3:50am 3ft 13s 6s 7 11 mph 1016.5mb 61f 57f
3:40am  -   -   -  7 9 mph 1016.5mb 61f 57f
3:30am  -   -   -  7 11 mph 1016.5mb 61f 58f
3:20am  -   -   -  7 11 mph 1016.5mb 61f 58f
3:10am  -   -   -  9 11 mph 1016.5mb 61f 58f
3:00am  -   -   -  9 11 mph 1016.3mb 61f 58f
2:50am 3.5ft 12s 5s 9 11 mph 1016.3mb 61f 58f
2:40am 3.5ft  -  5s 11 13 mph 1016.4mb 61f 58f
2:30am  -   -   -  11 13 mph 1016.5mb 61f 58f
2:20am  -   -   -  11 13 mph 1016.4mb 61f 58f
2:10am  -   -   -  11 13 mph 1016.3mb 61f 58f